sensor_id;sensor_type;location;lat;lon;timestamp;temperature;humidity
13610;DHT22;6876;50.788;4.940;2023-03-16T00:01:22;6.20;99.90
13610;DHT22;6876;50.788;4.940;2023-03-16T00:04:09;6.20;99.90
13610;DHT22;6876;50.788;4.940;2023-03-16T00:06:56;6.20;99.90
13610;DHT22;6876;50.788;4.940;2023-03-16T00:09:44;6.20;99.90
13610;DHT22;6876;50.788;4.940;2023-03-16T00:12:33;6.30;99.90
13610;DHT22;6876;50.788;4.940;2023-03-16T00:15:21;6.30;99.90
13610;DHT22;6876;50.788;4.940;2023-03-16T00:18:08;6.30;99.90
13610;DHT22;6876;50.788;4.940;2023-03-16T00:20:57;6.30;99.90
13610;DHT22;6876;50.788;4.940;2023-03-16T00:23:47;6.30;99.90
13610;DHT22;6876;50.788;4.940;2023-03-16T00:26:34;6.40;99.90
13610;DHT22;6876;50.788;4.940;2023-03-16T00:29:23;6.40;99.90
13610;DHT22;6876;50.788;4.940;2023-03-16T00:32:10;6.40;99.90
13610;DHT22;6876;50.788;4.940;2023-03-16T00:34:57;6.40;99.90
13610;DHT22;6876;50.788;4.940;2023-03-16T00:37:45;6.40;99.90
13610;DHT22;6876;50.788;4.940;2023-03-16T00:40:32;6.30;99.90
13610;DHT22;6876;50.788;4.940;2023-03-16T00:43:19;6.40;99.90
13610;DHT22;6876;50.788;4.940;2023-03-16T00:46:10;6.40;99.90
13610;DHT22;6876;50.788;4.940;2023-03-16T00:48:57;6.40;99.90
13610;DHT22;6876;50.788;4.940;2023-03-16T00:51:44;6.40;99.90
13610;DHT22;6876;50.788;4.940;2023-03-16T00:54:32;6.40;99.90
13610;DHT22;6876;50.788;4.940;2023-03-16T00:57:21;6.50;99.90
13610;DHT22;6876;50.788;4.940;2023-03-16T01:00:10;6.40;99.90
13610;DHT22;6876;50.788;4.940;2023-03-16T01:03:03;6.40;99.90
13610;DHT22;6876;50.788;4.940;2023-03-16T01:05:50;6.40;99.90
13610;DHT22;6876;50.788;4.940;2023-03-16T01:08:38;6.40;99.90
13610;DHT22;6876;50.788;4.940;2023-03-16T01:11:26;6.40;99.90
13610;DHT22;6876;50.788;4.940;2023-03-16T01:14:14;6.40;99.90
13610;DHT22;6876;50.788;4.940;2023-03-16T01:17:02;6.40;99.90
13610;DHT22;6876;50.788;4.940;2023-03-16T01:19:50;6.40;99.90
13610;DHT22;6876;50.788;4.940;2023-03-16T01:22:38;6.40;99.90
13610;DHT22;6876;50.788;4.940;2023-03-16T01:25:25;6.40;99.90
13610;DHT22;6876;50.788;4.940;2023-03-16T01:28:12;6.50;99.90
13610;DHT22;6876;50.788;4.940;2023-03-16T01:31:03;6.50;99.90
13610;DHT22;6876;50.788;4.940;2023-03-16T01:33:50;6.50;99.90
13610;DHT22;6876;50.788;4.940;2023-03-16T01:36:39;6.50;99.90
13610;DHT22;6876;50.788;4.940;2023-03-16T01:39:27;6.50;99.90
13610;DHT22;6876;50.788;4.940;2023-03-16T01:42:14;6.50;99.90
13610;DHT22;6876;50.788;4.940;2023-03-16T01:45:02;6.50;99.90
13610;DHT22;6876;50.788;4.940;2023-03-16T01:47:50;6.60;99.90
13610;DHT22;6876;50.788;4.940;2023-03-16T01:50:38;6.60;99.90
13610;DHT22;6876;50.788;4.940;2023-03-16T01:53:28;6.60;99.90
13610;DHT22;6876;50.788;4.940;2023-03-16T01:56:21;6.50;99.90
13610;DHT22;6876;50.788;4.940;2023-03-16T01:59:13;6.50;99.90
13610;DHT22;6876;50.788;4.940;2023-03-16T02:02:01;6.50;99.90
13610;DHT22;6876;50.788;4.940;2023-03-16T02:04:50;6.50;99.90
13610;DHT22;6876;50.788;4.940;2023-03-16T02:07:42;6.50;99.90
13610;DHT22;6876;50.788;4.940;2023-03-16T02:10:32;6.50;99.90
13610;DHT22;6876;50.788;4.940;2023-03-16T02:13:21;6.50;99.90
13610;DHT22;6876;50.788;4.940;2023-03-16T02:16:08;6.60;99.90
13610;DHT22;6876;50.788;4.940;2023-03-16T02:18:56;6.60;99.90
13610;DHT22;6876;50.788;4.940;2023-03-16T02:21:49;6.50;99.90
13610;DHT22;6876;50.788;4.940;2023-03-16T02:24:40;6.60;99.90
13610;DHT22;6876;50.788;4.940;2023-03-16T02:27:36;6.60;99.90
13610;DHT22;6876;50.788;4.940;2023-03-16T02:30:27;6.60;99.90
13610;DHT22;6876;50.788;4.940;2023-03-16T02:33:16;6.50;99.90
13610;DHT22;6876;50.788;4.940;2023-03-16T02:36:04;6.50;99.90
13610;DHT22;6876;50.788;4.940;2023-03-16T02:38:52;6.60;99.90
13610;DHT22;6876;50.788;4.940;2023-03-16T02:41:40;6.60;99.90
13610;DHT22;6876;50.788;4.940;2023-03-16T02:44:31;6.70;1.00
13610;DHT22;6876;50.788;4.940;2023-03-16T02:47:26;6.70;99.90
13610;DHT22;6876;50.788;4.940;2023-03-16T02:50:14;6.60;99.90
13610;DHT22;6876;50.788;4.940;2023-03-16T02:53:01;6.70;99.90
13610;DHT22;6876;50.788;4.940;2023-03-16T02:55:49;6.60;99.90
13610;DHT22;6876;50.788;4.940;2023-03-16T02:58:36;6.60;99.90
13610;DHT22;6876;50.788;4.940;2023-03-16T03:01:23;6.60;99.90
13610;DHT22;6876;50.788;4.940;2023-03-16T03:04:12;6.60;99.90
13610;DHT22;6876;50.788;4.940;2023-03-16T03:07:00;6.70;99.90
13610;DHT22;6876;50.788;4.940;2023-03-16T03:09:49;6.70;99.90
13610;DHT22;6876;50.788;4.940;2023-03-16T03:12:38;6.60;99.90
13610;DHT22;6876;50.788;4.940;2023-03-16T03:15:25;6.60;99.90
13610;DHT22;6876;50.788;4.940;2023-03-16T03:18:13;6.60;99.90
13610;DHT22;6876;50.788;4.940;2023-03-16T03:21:01;6.70;99.90
13610;DHT22;6876;50.788;4.940;2023-03-16T03:23:49;6.70;99.90
13610;DHT22;6876;50.788;4.940;2023-03-16T03:26:37;6.70;99.90
13610;DHT22;6876;50.788;4.940;2023-03-16T03:29:24;6.60;99.90
13610;DHT22;6876;50.788;4.940;2023-03-16T03:32:19;6.60;99.90
13610;DHT22;6876;50.788;4.940;2023-03-16T03:35:07;6.60;99.90
13610;DHT22;6876;50.788;4.940;2023-03-16T03:37:58;6.60;99.90
13610;DHT22;6876;50.788;4.940;2023-03-16T03:40:48;6.50;99.90
13610;DHT22;6876;50.788;4.940;2023-03-16T03:43:35;6.50;99.90
13610;DHT22;6876;50.788;4.940;2023-03-16T03:46:23;6.40;99.90
13610;DHT22;6876;50.788;4.940;2023-03-16T03:49:10;6.40;99.90
13610;DHT22;6876;50.788;4.940;2023-03-16T03:51:57;6.40;99.90
13610;DHT22;6876;50.788;4.940;2023-03-16T03:54:48;6.40;99.90
13610;DHT22;6876;50.788;4.940;2023-03-16T03:57:36;6.30;99.90
13610;DHT22;6876;50.788;4.940;2023-03-16T04:00:23;6.30;99.90
13610;DHT22;6876;50.788;4.940;2023-03-16T04:03:11;6.30;99.90
13610;DHT22;6876;50.788;4.940;2023-03-16T04:05:58;6.30;99.90
13610;DHT22;6876;50.788;4.940;2023-03-16T04:08:46;6.30;99.90
13610;DHT22;6876;50.788;4.940;2023-03-16T04:11:34;6.20;99.90
13610;DHT22;6876;50.788;4.940;2023-03-16T04:14:22;6.20;99.90
13610;DHT22;6876;50.788;4.940;2023-03-16T04:17:09;6.30;99.90
13610;DHT22;6876;50.788;4.940;2023-03-16T04:19:57;6.30;99.90
13610;DHT22;6876;50.788;4.940;2023-03-16T04:22:45;6.30;99.90
13610;DHT22;6876;50.788;4.940;2023-03-16T04:25:32;6.30;99.90
13610;DHT22;6876;50.788;4.940;2023-03-16T04:28:24;6.30;99.90
13610;DHT22;6876;50.788;4.940;2023-03-16T04:31:12;6.30;99.90
13610;DHT22;6876;50.788;4.940;2023-03-16T04:33:59;6.30;99.90
13610;DHT22;6876;50.788;4.940;2023-03-16T04:36:47;6.30;99.90
13610;DHT22;6876;50.788;4.940;2023-03-16T04:39:34;6.30;99.90
13610;DHT22;6876;50.788;4.940;2023-03-16T04:42:21;6.30;99.90
13610;DHT22;6876;50.788;4.940;2023-03-16T04:45:11;6.30;99.90
13610;DHT22;6876;50.788;4.940;2023-03-16T04:47:59;6.30;99.90
13610;DHT22;6876;50.788;4.940;2023-03-16T04:50:47;6.30;99.90
13610;DHT22;6876;50.788;4.940;2023-03-16T04:53:35;6.30;99.90
13610;DHT22;6876;50.788;4.940;2023-03-16T04:56:22;6.30;99.90
13610;DHT22;6876;50.788;4.940;2023-03-16T04:59:10;6.30;99.90
13610;DHT22;6876;50.788;4.940;2023-03-16T05:01:58;6.30;99.90
13610;DHT22;6876;50.788;4.940;2023-03-16T05:04:46;6.30;99.90
13610;DHT22;6876;50.788;4.940;2023-03-16T05:07:34;6.30;99.90
13610;DHT22;6876;50.788;4.940;2023-03-16T05:10:21;6.30;99.90
13610;DHT22;6876;50.788;4.940;2023-03-16T05:13:08;6.30;99.90
13610;DHT22;6876;50.788;4.940;2023-03-16T05:15:56;6.30;99.90
13610;DHT22;6876;50.788;4.940;2023-03-16T05:18:44;6.30;99.90
13610;DHT22;6876;50.788;4.940;2023-03-16T05:21:32;6.30;99.90
13610;DHT22;6876;50.788;4.940;2023-03-16T05:24:22;6.30;1.00
13610;DHT22;6876;50.788;4.940;2023-03-16T05:27:09;6.30;1.00
13610;DHT22;6876;50.788;4.940;2023-03-16T05:29:57;6.30;94.40
13610;DHT22;6876;50.788;4.940;2023-03-16T05:32:46;6.30;99.90
13610;DHT22;6876;50.788;4.940;2023-03-16T05:35:36;6.30;99.90
13610;DHT22;6876;50.788;4.940;2023-03-16T05:38:28;6.30;99.90
13610;DHT22;6876;50.788;4.940;2023-03-16T05:41:16;6.30;99.90
13610;DHT22;6876;50.788;4.940;2023-03-16T05:44:06;6.30;99.90
13610;DHT22;6876;50.788;4.940;2023-03-16T05:46:54;6.30;99.90
13610;DHT22;6876;50.788;4.940;2023-03-16T05:49:41;6.30;99.90
13610;DHT22;6876;50.788;4.940;2023-03-16T05:52:30;6.30;99.90
13610;DHT22;6876;50.788;4.940;2023-03-16T05:55:18;6.30;99.90
13610;DHT22;6876;50.788;4.940;2023-03-16T05:58:06;6.30;99.90
13610;DHT22;6876;50.788;4.940;2023-03-16T06:00:53;6.30;99.90
13610;DHT22;6876;50.788;4.940;2023-03-16T06:03:41;6.30;99.90
13610;DHT22;6876;50.788;4.940;2023-03-16T06:06:28;6.30;99.90
13610;DHT22;6876;50.788;4.940;2023-03-16T06:09:17;6.40;99.90
13610;DHT22;6876;50.788;4.940;2023-03-16T06:12:04;6.40;99.90
13610;DHT22;6876;50.788;4.940;2023-03-16T06:14:52;6.40;99.90
13610;DHT22;6876;50.788;4.940;2023-03-16T06:17:39;6.40;99.90
13610;DHT22;6876;50.788;4.940;2023-03-16T06:20:27;6.40;99.90
13610;DHT22;6876;50.788;4.940;2023-03-16T06:23:14;6.40;99.90
13610;DHT22;6876;50.788;4.940;2023-03-16T06:26:06;6.40;99.90
13610;DHT22;6876;50.788;4.940;2023-03-16T06:28:53;6.50;99.90
13610;DHT22;6876;50.788;4.940;2023-03-16T06:31:41;6.50;99.90
13610;DHT22;6876;50.788;4.940;2023-03-16T06:34:28;6.60;99.90
13610;DHT22;6876;50.788;4.940;2023-03-16T06:37:15;6.60;99.90
13610;DHT22;6876;50.788;4.940;2023-03-16T06:40:04;6.70;99.90
13610;DHT22;6876;50.788;4.940;2023-03-16T06:42:52;6.80;99.90
13610;DHT22;6876;50.788;4.940;2023-03-16T06:45:42;6.80;99.90
13610;DHT22;6876;50.788;4.940;2023-03-16T06:48:32;6.90;99.90
13610;DHT22;6876;50.788;4.940;2023-03-16T06:51:19;6.90;99.90
13610;DHT22;6876;50.788;4.940;2023-03-16T06:54:06;6.90;99.90
13610;DHT22;6876;50.788;4.940;2023-03-16T06:56:54;7.00;99.90
13610;DHT22;6876;50.788;4.940;2023-03-16T06:59:42;7.00;99.90
13610;DHT22;6876;50.788;4.940;2023-03-16T07:02:30;7.00;99.90
13610;DHT22;6876;50.788;4.940;2023-03-16T07:05:22;7.00;99.90
13610;DHT22;6876;50.788;4.940;2023-03-16T07:08:09;7.10;99.90
13610;DHT22;6876;50.788;4.940;2023-03-16T07:10:57;7.10;99.90
13610;DHT22;6876;50.788;4.940;2023-03-16T07:13:44;7.10;99.90
13610;DHT22;6876;50.788;4.940;2023-03-16T07:16:33;7.20;99.90
13610;DHT22;6876;50.788;4.940;2023-03-16T07:19:20;7.30;99.90
13610;DHT22;6876;50.788;4.940;2023-03-16T07:22:08;7.30;99.90
13610;DHT22;6876;50.788;4.940;2023-03-16T07:24:55;7.30;99.90
13610;DHT22;6876;50.788;4.940;2023-03-16T07:27:43;7.30;99.90
13610;DHT22;6876;50.788;4.940;2023-03-16T07:30:32;7.30;99.90
13610;DHT22;6876;50.788;4.940;2023-03-16T07:33:21;7.40;99.90
13610;DHT22;6876;50.788;4.940;2023-03-16T07:36:08;7.40;99.90
13610;DHT22;6876;50.788;4.940;2023-03-16T07:38:55;7.50;99.90
13610;DHT22;6876;50.788;4.940;2023-03-16T07:41:43;7.50;99.90
13610;DHT22;6876;50.788;4.940;2023-03-16T07:44:30;7.60;99.90
13610;DHT22;6876;50.788;4.940;2023-03-16T07:47:18;7.90;99.90
13610;DHT22;6876;50.788;4.940;2023-03-16T07:50:09;8.20;99.90
13610;DHT22;6876;50.788;4.940;2023-03-16T07:52:56;8.50;99.90
13610;DHT22;6876;50.788;4.940;2023-03-16T07:55:43;8.70;99.90
13610;DHT22;6876;50.788;4.940;2023-03-16T07:58:31;8.70;99.90
13610;DHT22;6876;50.788;4.940;2023-03-16T08:01:18;8.80;99.90
13610;DHT22;6876;50.788;4.940;2023-03-16T08:04:08;8.80;99.90
13610;DHT22;6876;50.788;4.940;2023-03-16T08:06:58;9.00;99.90
13610;DHT22;6876;50.788;4.940;2023-03-16T08:09:47;9.00;99.90
13610;DHT22;6876;50.788;4.940;2023-03-16T08:12:34;9.10;99.90
13610;DHT22;6876;50.788;4.940;2023-03-16T08:15:21;9.70;99.90
13610;DHT22;6876;50.788;4.940;2023-03-16T08:18:09;10.90;99.90
13610;DHT22;6876;50.788;4.940;2023-03-16T08:20:57;11.80;99.90
13610;DHT22;6876;50.788;4.940;2023-03-16T08:23:46;13.40;99.90
13610;DHT22;6876;50.788;4.940;2023-03-16T08:26:35;13.10;99.90
13610;DHT22;6876;50.788;4.940;2023-03-16T08:29:22;12.00;99.90
13610;DHT22;6876;50.788;4.940;2023-03-16T08:32:10;11.60;99.90
13610;DHT22;6876;50.788;4.940;2023-03-16T08:34:57;12.80;99.90
13610;DHT22;6876;50.788;4.940;2023-03-16T08:37:45;13.50;99.90
13610;DHT22;6876;50.788;4.940;2023-03-16T08:40:35;12.80;99.90
13610;DHT22;6876;50.788;4.940;2023-03-16T08:43:23;12.10;99.90
13610;DHT22;6876;50.788;4.940;2023-03-16T08:46:11;12.30;99.90
13610;DHT22;6876;50.788;4.940;2023-03-16T08:48:59;12.20;99.90
13610;DHT22;6876;50.788;4.940;2023-03-16T08:51:47;12.90;99.90
13610;DHT22;6876;50.788;4.940;2023-03-16T08:54:35;12.90;99.90
13610;DHT22;6876;50.788;4.940;2023-03-16T08:57:24;14.20;99.90
13610;DHT22;6876;50.788;4.940;2023-03-16T09:00:13;15.20;99.90
13610;DHT22;6876;50.788;4.940;2023-03-16T09:03:00;15.60;99.90
13610;DHT22;6876;50.788;4.940;2023-03-16T09:05:47;16.60;99.90
13610;DHT22;6876;50.788;4.940;2023-03-16T09:08:36;17.40;99.90
13610;DHT22;6876;50.788;4.940;2023-03-16T09:11:24;17.50;99.90
13610;DHT22;6876;50.788;4.940;2023-03-16T09:14:16;17.90;99.90
13610;DHT22;6876;50.788;4.940;2023-03-16T09:17:04;19.00;99.90
13610;DHT22;6876;50.788;4.940;2023-03-16T09:19:52;19.50;98.60
13610;DHT22;6876;50.788;4.940;2023-03-16T09:22:40;18.30;98.60
13610;DHT22;6876;50.788;4.940;2023-03-16T09:25:28;17.50;99.00
13610;DHT22;6876;50.788;4.940;2023-03-16T09:28:17;16.60;99.80
13610;DHT22;6876;50.788;4.940;2023-03-16T09:31:06;15.90;99.90
13610;DHT22;6876;50.788;4.940;2023-03-16T09:33:54;14.70;99.90
13610;DHT22;6876;50.788;4.940;2023-03-16T09:36:41;14.50;99.90
13610;DHT22;6876;50.788;4.940;2023-03-16T09:39:28;14.60;99.90
13610;DHT22;6876;50.788;4.940;2023-03-16T09:42:19;14.50;99.90
13610;DHT22;6876;50.788;4.940;2023-03-16T09:45:16;14.20;99.90
13610;DHT22;6876;50.788;4.940;2023-03-16T09:48:09;13.90;99.90
13610;DHT22;6876;50.788;4.940;2023-03-16T09:50:59;13.50;99.90
13610;DHT22;6876;50.788;4.940;2023-03-16T09:53:49;13.50;99.90
13610;DHT22;6876;50.788;4.940;2023-03-16T09:56:40;13.60;99.90
13610;DHT22;6876;50.788;4.940;2023-03-16T09:59:29;13.30;99.90
13610;DHT22;6876;50.788;4.940;2023-03-16T10:02:38;13.00;99.90
13610;DHT22;6876;50.788;4.940;2023-03-16T10:05:30;12.80;99.90
13610;DHT22;6876;50.788;4.940;2023-03-16T10:08:21;12.70;99.90
13610;DHT22;6876;50.788;4.940;2023-03-16T10:11:28;12.80;99.90
13610;DHT22;6876;50.788;4.940;2023-03-16T10:14:22;13.20;99.90
13610;DHT22;6876;50.788;4.940;2023-03-16T10:17:15;13.50;99.90
13610;DHT22;6876;50.788;4.940;2023-03-16T10:20:05;14.00;99.90
13610;DHT22;6876;50.788;4.940;2023-03-16T10:23:00;14.60;99.90
13610;DHT22;6876;50.788;4.940;2023-03-16T10:25:53;15.20;99.90
13610;DHT22;6876;50.788;4.940;2023-03-16T10:28:41;15.60;99.90
13610;DHT22;6876;50.788;4.940;2023-03-16T10:31:33;15.60;99.90
13610;DHT22;6876;50.788;4.940;2023-03-16T10:34:21;16.20;99.90
13610;DHT22;6876;50.788;4.940;2023-03-16T10:37:12;16.70;99.90
13610;DHT22;6876;50.788;4.940;2023-03-16T10:40:06;16.60;99.90
13610;DHT22;6876;50.788;4.940;2023-03-16T10:42:54;16.50;99.90
13610;DHT22;6876;50.788;4.940;2023-03-16T10:45:41;16.50;99.90
13610;DHT22;6876;50.788;4.940;2023-03-16T10:48:31;16.20;99.90
13610;DHT22;6876;50.788;4.940;2023-03-16T10:51:23;16.50;99.90
13610;DHT22;6876;50.788;4.940;2023-03-16T10:54:15;16.00;99.90
13610;DHT22;6876;50.788;4.940;2023-03-16T10:57:17;15.70;99.90
13610;DHT22;6876;50.788;4.940;2023-03-16T11:00:12;15.80;99.90
13610;DHT22;6876;50.788;4.940;2023-03-16T11:03:18;15.50;99.90
13610;DHT22;6876;50.788;4.940;2023-03-16T11:06:18;15.60;99.90
13610;DHT22;6876;50.788;4.940;2023-03-16T11:09:16;15.50;99.90
13610;DHT22;6876;50.788;4.940;2023-03-16T11:12:14;15.60;99.90
13610;DHT22;6876;50.788;4.940;2023-03-16T11:15:12;15.80;99.90
13610;DHT22;6876;50.788;4.940;2023-03-16T11:17:59;15.60;99.90
13610;DHT22;6876;50.788;4.940;2023-03-16T11:20:47;15.60;99.90
13610;DHT22;6876;50.788;4.940;2023-03-16T11:23:39;15.50;99.90
13610;DHT22;6876;50.788;4.940;2023-03-16T11:26:33;15.40;99.90
13610;DHT22;6876;50.788;4.940;2023-03-16T11:29:26;15.10;99.90
13610;DHT22;6876;50.788;4.940;2023-03-16T11:32:18;15.00;99.90
13610;DHT22;6876;50.788;4.940;2023-03-16T11:35:14;15.20;71.40
13610;DHT22;6876;50.788;4.940;2023-03-16T11:38:12;15.20;99.90
13610;DHT22;6876;50.788;4.940;2023-03-16T11:41:02;15.00;99.90
13610;DHT22;6876;50.788;4.940;2023-03-16T11:43:52;14.80;99.90
13610;DHT22;6876;50.788;4.940;2023-03-16T11:46:48;14.90;99.90
13610;DHT22;6876;50.788;4.940;2023-03-16T11:49:50;15.00;99.90
13610;DHT22;6876;50.788;4.940;2023-03-16T11:52:48;14.90;99.90
13610;DHT22;6876;50.788;4.940;2023-03-16T11:55:44;14.90;99.90
13610;DHT22;6876;50.788;4.940;2023-03-16T11:58:49;14.80;99.90
13610;DHT22;6876;50.788;4.940;2023-03-16T12:01:50;14.80;99.90
13610;DHT22;6876;50.788;4.940;2023-03-16T12:04:51;15.00;99.90
13610;DHT22;6876;50.788;4.940;2023-03-16T12:07:47;15.00;99.90
13610;DHT22;6876;50.788;4.940;2023-03-16T12:10:41;15.00;99.90
13610;DHT22;6876;50.788;4.940;2023-03-16T12:13:40;15.10;99.90
13610;DHT22;6876;50.788;4.940;2023-03-16T12:16:34;15.00;99.90
13610;DHT22;6876;50.788;4.940;2023-03-16T12:19:32;14.80;99.90
13610;DHT22;6876;50.788;4.940;2023-03-16T12:22:27;15.00;99.90
13610;DHT22;6876;50.788;4.940;2023-03-16T12:25:18;15.10;99.90
13610;DHT22;6876;50.788;4.940;2023-03-16T12:28:12;15.30;99.90
13610;DHT22;6876;50.788;4.940;2023-03-16T12:31:06;15.60;99.90
13610;DHT22;6876;50.788;4.940;2023-03-16T12:34:06;15.40;99.90
13610;DHT22;6876;50.788;4.940;2023-03-16T12:37:05;15.40;99.90
13610;DHT22;6876;50.788;4.940;2023-03-16T12:40:03;15.20;99.90
13610;DHT22;6876;50.788;4.940;2023-03-16T12:43:03;15.10;99.90
13610;DHT22;6876;50.788;4.940;2023-03-16T12:45:57;15.20;99.90
13610;DHT22;6876;50.788;4.940;2023-03-16T12:48:48;15.10;99.90
13610;DHT22;6876;50.788;4.940;2023-03-16T12:51:37;15.00;99.90
13610;DHT22;6876;50.788;4.940;2023-03-16T12:54:27;15.00;99.90
13610;DHT22;6876;50.788;4.940;2023-03-16T12:57:16;15.10;99.90
13610;DHT22;6876;50.788;4.940;2023-03-16T13:00:05;15.10;99.90
13610;DHT22;6876;50.788;4.940;2023-03-16T13:02:55;15.00;99.90
13610;DHT22;6876;50.788;4.940;2023-03-16T13:05:45;15.00;99.90
13610;DHT22;6876;50.788;4.940;2023-03-16T13:08:40;15.10;99.20
13610;DHT22;6876;50.788;4.940;2023-03-16T13:11:39;15.30;99.90
13610;DHT22;6876;50.788;4.940;2023-03-16T13:14:36;15.30;99.90
13610;DHT22;6876;50.788;4.940;2023-03-16T13:17:30;15.20;99.90
13610;DHT22;6876;50.788;4.940;2023-03-16T13:20:25;15.30;99.90
13610;DHT22;6876;50.788;4.940;2023-03-16T13:23:21;15.40;99.90
13610;DHT22;6876;50.788;4.940;2023-03-16T13:26:14;15.40;99.90
13610;DHT22;6876;50.788;4.940;2023-03-16T13:29:16;15.50;98.70
13610;DHT22;6876;50.788;4.940;2023-03-16T13:32:07;15.60;99.70
13610;DHT22;6876;50.788;4.940;2023-03-16T13:35:04;15.60;98.90
13610;DHT22;6876;50.788;4.940;2023-03-16T13:37:52;15.50;99.60
13610;DHT22;6876;50.788;4.940;2023-03-16T13:40:44;15.40;99.90
13610;DHT22;6876;50.788;4.940;2023-03-16T13:43:32;15.50;99.10
13610;DHT22;6876;50.788;4.940;2023-03-16T13:46:28;15.40;97.80
13610;DHT22;6876;50.788;4.940;2023-03-16T13:49:16;15.40;98.40
13610;DHT22;6876;50.788;4.940;2023-03-16T13:52:04;15.30;98.00
13610;DHT22;6876;50.788;4.940;2023-03-16T13:54:52;15.40;98.10
13610;DHT22;6876;50.788;4.940;2023-03-16T13:57:40;15.40;98.20
13610;DHT22;6876;50.788;4.940;2023-03-16T14:00:31;15.40;97.90
13610;DHT22;6876;50.788;4.940;2023-03-16T14:03:21;15.20;97.30
13610;DHT22;6876;50.788;4.940;2023-03-16T14:06:20;15.30;97.40
13610;DHT22;6876;50.788;4.940;2023-03-16T14:09:14;15.30;97.40
13610;DHT22;6876;50.788;4.940;2023-03-16T14:12:04;15.30;97.40
13610;DHT22;6876;50.788;4.940;2023-03-16T14:14:54;15.30;98.30
13610;DHT22;6876;50.788;4.940;2023-03-16T14:17:42;15.40;97.40
13610;DHT22;6876;50.788;4.940;2023-03-16T14:20:30;15.50;97.40
13610;DHT22;6876;50.788;4.940;2023-03-16T14:23:20;15.40;97.40
13610;DHT22;6876;50.788;4.940;2023-03-16T14:26:12;15.40;96.60
13610;DHT22;6876;50.788;4.940;2023-03-16T14:29:03;15.40;97.40
13610;DHT22;6876;50.788;4.940;2023-03-16T14:31:51;15.40;97.40
13610;DHT22;6876;50.788;4.940;2023-03-16T14:34:39;15.40;97.00
13610;DHT22;6876;50.788;4.940;2023-03-16T14:37:35;15.40;96.90
13610;DHT22;6876;50.788;4.940;2023-03-16T14:40:26;15.40;96.10
13610;DHT22;6876;50.788;4.940;2023-03-16T14:43:14;15.40;1.00
13610;DHT22;6876;50.788;4.940;2023-03-16T14:46:03;15.30;1.00
13610;DHT22;6876;50.788;4.940;2023-03-16T14:48:51;15.20;1.00
13610;DHT22;6876;50.788;4.940;2023-03-16T14:51:46;15.20;5.40
13610;DHT22;6876;50.788;4.940;2023-03-16T14:54:35;15.10;1.00
13610;DHT22;6876;50.788;4.940;2023-03-16T14:57:23;15.20;1.00
13610;DHT22;6876;50.788;4.940;2023-03-16T15:00:12;15.20;1.00
13610;DHT22;6876;50.788;4.940;2023-03-16T15:03:03;15.30;1.00
13610;DHT22;6876;50.788;4.940;2023-03-16T15:05:52;15.30;1.00
13610;DHT22;6876;50.788;4.940;2023-03-16T15:08:43;15.30;1.00
13610;DHT22;6876;50.788;4.940;2023-03-16T15:11:33;15.30;1.00
13610;DHT22;6876;50.788;4.940;2023-03-16T15:14:20;15.30;1.00
13610;DHT22;6876;50.788;4.940;2023-03-16T15:17:21;15.30;1.00
13610;DHT22;6876;50.788;4.940;2023-03-16T15:20:10;15.30;1.00
13610;DHT22;6876;50.788;4.940;2023-03-16T15:22:58;15.30;1.00
13610;DHT22;6876;50.788;4.940;2023-03-16T15:25:47;15.40;1.00
13610;DHT22;6876;50.788;4.940;2023-03-16T15:28:38;15.40;1.00
13610;DHT22;6876;50.788;4.940;2023-03-16T15:31:25;15.30;1.00
13610;DHT22;6876;50.788;4.940;2023-03-16T15:34:13;15.20;1.00
13610;DHT22;6876;50.788;4.940;2023-03-16T15:37:01;15.10;1.00
13610;DHT22;6876;50.788;4.940;2023-03-16T15:39:49;15.10;1.00
13610;DHT22;6876;50.788;4.940;2023-03-16T15:42:36;15.10;1.00
13610;DHT22;6876;50.788;4.940;2023-03-16T15:45:25;15.00;1.00
13610;DHT22;6876;50.788;4.940;2023-03-16T15:48:13;15.10;1.00
13610;DHT22;6876;50.788;4.940;2023-03-16T15:51:06;15.00;1.00
13610;DHT22;6876;50.788;4.940;2023-03-16T15:53:56;15.00;99.90
13610;DHT22;6876;50.788;4.940;2023-03-16T15:56:44;15.00;1.00
13610;DHT22;6876;50.788;4.940;2023-03-16T15:59:34;14.90;1.00
13610;DHT22;6876;50.788;4.940;2023-03-16T16:02:27;14.80;1.00
13610;DHT22;6876;50.788;4.940;2023-03-16T16:05:15;14.70;1.00
13610;DHT22;6876;50.788;4.940;2023-03-16T16:08:02;14.60;1.00
13610;DHT22;6876;50.788;4.940;2023-03-16T16:10:50;14.50;1.00
13610;DHT22;6876;50.788;4.940;2023-03-16T16:13:38;14.40;1.00
13610;DHT22;6876;50.788;4.940;2023-03-16T16:16:27;14.40;1.00
13610;DHT22;6876;50.788;4.940;2023-03-16T16:19:16;14.30;1.00
13610;DHT22;6876;50.788;4.940;2023-03-16T16:22:03;14.20;1.00
13610;DHT22;6876;50.788;4.940;2023-03-16T16:24:51;14.20;99.90
13610;DHT22;6876;50.788;4.940;2023-03-16T16:27:40;14.10;1.00
13610;DHT22;6876;50.788;4.940;2023-03-16T16:30:30;14.10;1.00
13610;DHT22;6876;50.788;4.940;2023-03-16T16:33:22;14.10;1.00
13610;DHT22;6876;50.788;4.940;2023-03-16T16:36:13;14.10;1.00
13610;DHT22;6876;50.788;4.940;2023-03-16T16:39:02;14.10;99.90
13610;DHT22;6876;50.788;4.940;2023-03-16T16:41:50;14.10;99.90
13610;DHT22;6876;50.788;4.940;2023-03-16T16:44:40;14.10;99.90
13610;DHT22;6876;50.788;4.940;2023-03-16T16:47:27;14.10;1.00
13610;DHT22;6876;50.788;4.940;2023-03-16T16:50:17;14.10;1.00
13610;DHT22;6876;50.788;4.940;2023-03-16T16:53:18;14.10;1.00
13610;DHT22;6876;50.788;4.940;2023-03-16T16:56:10;14.00;1.00
13610;DHT22;6876;50.788;4.940;2023-03-16T16:59:01;13.90;1.00
13610;DHT22;6876;50.788;4.940;2023-03-16T17:01:53;13.80;1.00
13610;DHT22;6876;50.788;4.940;2023-03-16T17:04:41;13.70;1.00
13610;DHT22;6876;50.788;4.940;2023-03-16T17:07:28;13.60;1.00
13610;DHT22;6876;50.788;4.940;2023-03-16T17:10:19;13.60;1.00
13610;DHT22;6876;50.788;4.940;2023-03-16T17:13:19;13.50;1.00
13610;DHT22;6876;50.788;4.940;2023-03-16T17:16:13;13.40;1.00
13610;DHT22;6876;50.788;4.940;2023-03-16T17:19:02;13.30;1.00
13610;DHT22;6876;50.788;4.940;2023-03-16T17:21:53;13.20;1.00
13610;DHT22;6876;50.788;4.940;2023-03-16T17:24:41;13.10;99.90
13610;DHT22;6876;50.788;4.940;2023-03-16T17:27:30;13.10;99.90
13610;DHT22;6876;50.788;4.940;2023-03-16T17:30:21;13.00;1.00
13610;DHT22;6876;50.788;4.940;2023-03-16T17:33:11;12.90;1.00
13610;DHT22;6876;50.788;4.940;2023-03-16T17:35:59;12.80;1.00
13610;DHT22;6876;50.788;4.940;2023-03-16T17:38:47;12.70;1.00
13610;DHT22;6876;50.788;4.940;2023-03-16T17:41:34;12.70;1.00
13610;DHT22;6876;50.788;4.940;2023-03-16T17:44:24;12.60;1.00
13610;DHT22;6876;50.788;4.940;2023-03-16T17:47:13;12.60;1.00
13610;DHT22;6876;50.788;4.940;2023-03-16T17:50:05;12.50;1.00
13610;DHT22;6876;50.788;4.940;2023-03-16T17:52:59;12.40;1.00
13610;DHT22;6876;50.788;4.940;2023-03-16T17:55:48;12.20;99.90
13610;DHT22;6876;50.788;4.940;2023-03-16T17:58:36;12.10;1.00
13610;DHT22;6876;50.788;4.940;2023-03-16T18:01:29;12.00;99.90
13610;DHT22;6876;50.788;4.940;2023-03-16T18:04:20;12.00;1.00
13610;DHT22;6876;50.788;4.940;2023-03-16T18:07:11;12.00;49.30
13610;DHT22;6876;50.788;4.940;2023-03-16T18:09:59;11.90;1.00
13610;DHT22;6876;50.788;4.940;2023-03-16T18:12:51;11.90;1.00
13610;DHT22;6876;50.788;4.940;2023-03-16T18:15:39;11.90;1.00
13610;DHT22;6876;50.788;4.940;2023-03-16T18:18:29;11.80;1.00
13610;DHT22;6876;50.788;4.940;2023-03-16T18:21:21;11.80;99.90